PAEM

Details ICAO PAEM (EMK)
Name EMMONAK
Region USA (Alaska)
Timezone America/Nome (UTC-8.0)
Plans Departing 2
Arriving 7
Stats Elevation 8 ft / 2 m (AMSL)
Location 62.786147° -164.490751°
Runways 1
Magnetic Variation 10.267° E
Sunrise 2018-05-23 13:35:53 UTC / 2018-05-23 05:35:53 Local
Sunset 2018-05-24 08:16:29 UTC / 2018-05-24 00:16:29 Local
Advertisement - Login to hide

Runways

ID Width Length Bearing (true) Bearing (mag) Surface Threshold Offset Overrun Length
16 98 ft / 30 m 4,591 ft / 1,399 m 176.73° 166.46° Gravel 0 ft / 0 m 299 ft / 91 m
34 98 ft / 30 m 4,591 ft / 1,399 m 356.73° 346.46° Gravel 0 ft / 0 m 299 ft / 91 m

Map

Weather


0- 5 10 15 20 25 30 35+ Temperature / ° C

Clouds and Precipitation
Forecast for 2018-05-24 00:00 UTC. Updated 5 hours ago

Ground ~20,000 ft ~40,000 ft Winds

METAR

PAEM 240356Z AUTO 01013KT 10SM CLR 13/08 A2964 RMK AO2 SLP096 T01280078

TAF

Not found

Frequencies

Recorded 135.35 MHz AWOS 3
Unicom 122.90 MHz CTAF
Warning: Do not use this data for real-world aviation or navigation. No guarantee of current accuracy is given.